sensor_id;sensor_type;location;lat;lon;timestamp;P1;durP1;ratioP1;P2;durP2;ratioP2
4420;SDS011;11824;51.178;13.546;2023-07-29T00:00:50;5.20;;;2.80;;
4420;SDS011;11824;51.178;13.546;2023-07-29T00:03:18;3.17;;;2.87;;
4420;SDS011;11824;51.178;13.546;2023-07-29T00:05:45;3.80;;;2.23;;
4420;SDS011;11824;51.178;13.546;2023-07-29T00:08:13;3.10;;;1.97;;
4420;SDS011;11824;51.178;13.546;2023-07-29T00:10:41;2.50;;;2.20;;
4420;SDS011;11824;51.178;13.546;2023-07-29T00:13:08;2.40;;;2.20;;
4420;SDS011;11824;51.178;13.546;2023-07-29T00:15:36;4.87;;;2.80;;
4420;SDS011;11824;51.178;13.546;2023-07-29T00:18:03;3.07;;;2.70;;
4420;SDS011;11824;51.178;13.546;2023-07-29T00:20:31;5.93;;;2.57;;
4420;SDS011;11824;51.178;13.546;2023-07-29T00:22:59;10.13;;;3.27;;
4420;SDS011;11824;51.178;13.546;2023-07-29T00:25:27;2.97;;;2.40;;
4420;SDS011;11824;51.178;13.546;2023-07-29T00:27:55;2.43;;;2.23;;
4420;SDS011;11824;51.178;13.546;2023-07-29T00:30:24;3.30;;;2.40;;
4420;SDS011;11824;51.178;13.546;2023-07-29T00:32:52;4.57;;;2.60;;
4420;SDS011;11824;51.178;13.546;2023-07-29T00:35:19;4.90;;;2.90;;
4420;SDS011;11824;51.178;13.546;2023-07-29T00:37:47;2.60;;;2.40;;
4420;SDS011;11824;51.178;13.546;2023-07-29T00:40:16;2.83;;;2.63;;
4420;SDS011;11824;51.178;13.546;2023-07-29T00:42:47;3.03;;;2.73;;
4420;SDS011;11824;51.178;13.546;2023-07-29T00:45:14;3.60;;;3.30;;
4420;SDS011;11824;51.178;13.546;2023-07-29T00:47:42;2.40;;;2.20;;
4420;SDS011;11824;51.178;13.546;2023-07-29T00:50:11;3.60;;;3.03;;
4420;SDS011;11824;51.178;13.546;2023-07-29T00:52:39;3.73;;;2.47;;
4420;SDS011;11824;51.178;13.546;2023-07-29T00:55:08;3.10;;;2.80;;
4420;SDS011;11824;51.178;13.546;2023-07-29T00:57:36;6.23;;;2.53;;
4420;SDS011;11824;51.178;13.546;2023-07-29T01:00:05;3.00;;;2.60;;
4420;SDS011;11824;51.178;13.546;2023-07-29T01:02:34;3.90;;;3.03;;
4420;SDS011;11824;51.178;13.546;2023-07-29T01:05:02;4.27;;;3.87;;
4420;SDS011;11824;51.178;13.546;2023-07-29T01:07:31;6.07;;;3.57;;
4420;SDS011;11824;51.178;13.546;2023-07-29T01:10:07;6.17;;;2.63;;
4420;SDS011;11824;51.178;13.546;2023-07-29T01:12:47;3.10;;;2.80;;
4420;SDS011;11824;51.178;13.546;2023-07-29T01:15:25;4.63;;;3.10;;
4420;SDS011;11824;51.178;13.546;2023-07-29T01:17:59;3.83;;;3.53;;
4420;SDS011;11824;51.178;13.546;2023-07-29T01:20:32;7.23;;;3.20;;
4420;SDS011;11824;51.178;13.546;2023-07-29T01:23:03;4.10;;;3.70;;
4420;SDS011;11824;51.178;13.546;2023-07-29T01:25:31;8.83;;;3.83;;
4420;SDS011;11824;51.178;13.546;2023-07-29T01:27:58;3.77;;;3.37;;
4420;SDS011;11824;51.178;13.546;2023-07-29T01:30:31;4.37;;;2.97;;
4420;SDS011;11824;51.178;13.546;2023-07-29T01:33:04;8.53;;;4.03;;
4420;SDS011;11824;51.178;13.546;2023-07-29T01:35:42;5.97;;;3.90;;
4420;SDS011;11824;51.178;13.546;2023-07-29T01:38:13;4.57;;;3.30;;
4420;SDS011;11824;51.178;13.546;2023-07-29T01:40:44;4.77;;;4.07;;
4420;SDS011;11824;51.178;13.546;2023-07-29T01:43:14;10.17;;;4.30;;
4420;SDS011;11824;51.178;13.546;2023-07-29T01:45:43;5.40;;;4.90;;
4420;SDS011;11824;51.178;13.546;2023-07-29T01:48:11;7.63;;;4.10;;
4420;SDS011;11824;51.178;13.546;2023-07-29T01:50:38;10.87;;;4.60;;
4420;SDS011;11824;51.178;13.546;2023-07-29T01:53:05;4.57;;;3.70;;
4420;SDS011;11824;51.178;13.546;2023-07-29T01:55:33;3.40;;;3.10;;
4420;SDS011;11824;51.178;13.546;2023-07-29T01:58:01;6.63;;;3.10;;
4420;SDS011;11824;51.178;13.546;2023-07-29T02:00:28;3.70;;;3.40;;
4420;SDS011;11824;51.178;13.546;2023-07-29T02:02:56;3.70;;;2.83;;
4420;SDS011;11824;51.178;13.546;2023-07-29T02:05:23;3.77;;;3.47;;
4420;SDS011;11824;51.178;13.546;2023-07-29T02:07:51;4.73;;;3.77;;
4420;SDS011;11824;51.178;13.546;2023-07-29T02:10:18;6.33;;;3.10;;
4420;SDS011;11824;51.178;13.546;2023-07-29T02:12:45;6.70;;;3.97;;
4420;SDS011;11824;51.178;13.546;2023-07-29T02:15:13;5.20;;;3.70;;
4420;SDS011;11824;51.178;13.546;2023-07-29T02:17:41;4.17;;;3.77;;
4420;SDS011;11824;51.178;13.546;2023-07-29T02:20:09;5.90;;;2.97;;
4420;SDS011;11824;51.178;13.546;2023-07-29T02:22:37;3.50;;;3.20;;
4420;SDS011;11824;51.178;13.546;2023-07-29T02:25:05;10.80;;;2.90;;
4420;SDS011;11824;51.178;13.546;2023-07-29T02:27:33;3.57;;;2.77;;
4420;SDS011;11824;51.178;13.546;2023-07-29T02:30:00;3.57;;;2.77;;
4420;SDS011;11824;51.178;13.546;2023-07-29T02:32:28;3.23;;;2.60;;
4420;SDS011;11824;51.178;13.546;2023-07-29T02:34:56;3.57;;;2.80;;
4420;SDS011;11824;51.178;13.546;2023-07-29T02:37:23;4.73;;;3.60;;
4420;SDS011;11824;51.178;13.546;2023-07-29T02:39:51;6.60;;;3.10;;
4420;SDS011;11824;51.178;13.546;2023-07-29T02:42:18;3.10;;;2.80;;
4420;SDS011;11824;51.178;13.546;2023-07-29T02:44:45;3.00;;;2.40;;
4420;SDS011;11824;51.178;13.546;2023-07-29T02:47:13;2.70;;;2.50;;
4420;SDS011;11824;51.178;13.546;2023-07-29T02:49:41;3.20;;;2.90;;
4420;SDS011;11824;51.178;13.546;2023-07-29T02:52:08;2.67;;;2.47;;
4420;SDS011;11824;51.178;13.546;2023-07-29T02:54:35;2.93;;;2.60;;
4420;SDS011;11824;51.178;13.546;2023-07-29T02:57:03;3.70;;;2.60;;
4420;SDS011;11824;51.178;13.546;2023-07-29T02:59:30;4.50;;;2.60;;
4420;SDS011;11824;51.178;13.546;2023-07-29T03:01:58;4.03;;;2.67;;
4420;SDS011;11824;51.178;13.546;2023-07-29T03:04:25;6.63;;;2.70;;
4420;SDS011;11824;51.178;13.546;2023-07-29T03:06:53;2.80;;;2.23;;
4420;SDS011;11824;51.178;13.546;2023-07-29T03:09:21;2.30;;;2.10;;
4420;SDS011;11824;51.178;13.546;2023-07-29T03:11:48;3.80;;;2.10;;
4420;SDS011;11824;51.178;13.546;2023-07-29T03:14:16;3.20;;;2.20;;
4420;SDS011;11824;51.178;13.546;2023-07-29T03:16:44;2.07;;;1.90;;
4420;SDS011;11824;51.178;13.546;2023-07-29T03:19:12;3.43;;;2.60;;
4420;SDS011;11824;51.178;13.546;2023-07-29T03:21:39;2.63;;;2.10;;
4420;SDS011;11824;51.178;13.546;2023-07-29T03:24:07;4.43;;;2.40;;
4420;SDS011;11824;51.178;13.546;2023-07-29T03:26:35;9.47;;;2.73;;
4420;SDS011;11824;51.178;13.546;2023-07-29T03:29:02;1.73;;;1.63;;
4420;SDS011;11824;51.178;13.546;2023-07-29T03:31:30;3.97;;;2.00;;
4420;SDS011;11824;51.178;13.546;2023-07-29T03:33:57;2.30;;;2.10;;
4420;SDS011;11824;51.178;13.546;2023-07-29T03:36:24;4.70;;;2.10;;
4420;SDS011;11824;51.178;13.546;2023-07-29T03:38:52;3.90;;;2.20;;
4420;SDS011;11824;51.178;13.546;2023-07-29T03:41:20;2.80;;;2.00;;
4420;SDS011;11824;51.178;13.546;2023-07-29T03:43:47;2.00;;;1.83;;
4420;SDS011;11824;51.178;13.546;2023-07-29T03:46:15;2.20;;;2.00;;
4420;SDS011;11824;51.178;13.546;2023-07-29T03:48:45;2.03;;;1.83;;
4420;SDS011;11824;51.178;13.546;2023-07-29T03:51:12;1.87;;;1.77;;
4420;SDS011;11824;51.178;13.546;2023-07-29T03:53:40;1.60;;;1.50;;
4420;SDS011;11824;51.178;13.546;2023-07-29T03:56:07;2.00;;;1.50;;
4420;SDS011;11824;51.178;13.546;2023-07-29T03:58:36;1.50;;;1.40;;
4420;SDS011;11824;51.178;13.546;2023-07-29T04:01:03;1.57;;;1.30;;
4420;SDS011;11824;51.178;13.546;2023-07-29T04:03:31;2.17;;;1.43;;
4420;SDS011;11824;51.178;13.546;2023-07-29T04:05:59;1.97;;;1.77;;
4420;SDS011;11824;51.178;13.546;2023-07-29T04:08:27;3.53;;;1.60;;
4420;SDS011;11824;51.178;13.546;2023-07-29T04:10:54;4.27;;;1.47;;
4420;SDS011;11824;51.178;13.546;2023-07-29T04:13:21;4.70;;;1.50;;
4420;SDS011;11824;51.178;13.546;2023-07-29T04:15:50;6.33;;;2.00;;
4420;SDS011;11824;51.178;13.546;2023-07-29T04:18:17;2.53;;;1.50;;
4420;SDS011;11824;51.178;13.546;2023-07-29T04:20:44;3.43;;;1.40;;
4420;SDS011;11824;51.178;13.546;2023-07-29T04:23:12;2.83;;;1.43;;
4420;SDS011;11824;51.178;13.546;2023-07-29T04:25:39;1.53;;;1.43;;
4420;SDS011;11824;51.178;13.546;2023-07-29T04:28:07;1.70;;;1.60;;
4420;SDS011;11824;51.178;13.546;2023-07-29T04:30:34;3.17;;;1.20;;
4420;SDS011;11824;51.178;13.546;2023-07-29T04:33:02;2.03;;;1.83;;
4420;SDS011;11824;51.178;13.546;2023-07-29T04:35:30;1.50;;;1.33;;
4420;SDS011;11824;51.178;13.546;2023-07-29T04:37:57;1.70;;;1.60;;
4420;SDS011;11824;51.178;13.546;2023-07-29T04:40:25;1.87;;;1.53;;
4420;SDS011;11824;51.178;13.546;2023-07-29T04:42:52;3.27;;;1.37;;
4420;SDS011;11824;51.178;13.546;2023-07-29T04:45:19;1.63;;;1.30;;
4420;SDS011;11824;51.178;13.546;2023-07-29T04:47:47;2.37;;;1.33;;
4420;SDS011;11824;51.178;13.546;2023-07-29T04:50:15;1.20;;;1.10;;
4420;SDS011;11824;51.178;13.546;2023-07-29T04:52:43;3.63;;;1.37;;
4420;SDS011;11824;51.178;13.546;2023-07-29T04:55:10;1.13;;;1.03;;
4420;SDS011;11824;51.178;13.546;2023-07-29T04:57:37;1.43;;;1.33;;
4420;SDS011;11824;51.178;13.546;2023-07-29T05:00:05;1.63;;;1.20;;
4420;SDS011;11824;51.178;13.546;2023-07-29T05:02:33;5.60;;;2.10;;
4420;SDS011;11824;51.178;13.546;2023-07-29T05:05:01;1.40;;;1.30;;
4420;SDS011;11824;51.178;13.546;2023-07-29T05:07:29;1.93;;;1.60;;
4420;SDS011;11824;51.178;13.546;2023-07-29T05:09:56;3.00;;;1.60;;
4420;SDS011;11824;51.178;13.546;2023-07-29T05:12:24;1.63;;;1.53;;
4420;SDS011;11824;51.178;13.546;2023-07-29T05:14:51;1.30;;;1.20;;
4420;SDS011;11824;51.178;13.546;2023-07-29T05:17:19;1.43;;;1.33;;
4420;SDS011;11824;51.178;13.546;2023-07-29T05:19:48;1.40;;;1.30;;
4420;SDS011;11824;51.178;13.546;2023-07-29T05:22:15;1.20;;;1.10;;
4420;SDS011;11824;51.178;13.546;2023-07-29T05:24:43;1.60;;;1.50;;
4420;SDS011;11824;51.178;13.546;2023-07-29T05:27:11;2.67;;;2.47;;
4420;SDS011;11824;51.178;13.546;2023-07-29T05:29:38;1.53;;;1.43;;
4420;SDS011;11824;51.178;13.546;2023-07-29T05:32:05;1.50;;;1.40;;
4420;SDS011;11824;51.178;13.546;2023-07-29T05:34:33;1.43;;;1.23;;
4420;SDS011;11824;51.178;13.546;2023-07-29T05:37:00;1.53;;;1.43;;
4420;SDS011;11824;51.178;13.546;2023-07-29T05:39:28;1.97;;;1.60;;
4420;SDS011;11824;51.178;13.546;2023-07-29T05:41:56;1.50;;;1.40;;
4420;SDS011;11824;51.178;13.546;2023-07-29T05:44:24;2.07;;;1.97;;
4420;SDS011;11824;51.178;13.546;2023-07-29T05:46:51;5.70;;;2.10;;
4420;SDS011;11824;51.178;13.546;2023-07-29T05:49:19;2.50;;;1.30;;
4420;SDS011;11824;51.178;13.546;2023-07-29T05:51:46;1.33;;;1.23;;
4420;SDS011;11824;51.178;13.546;2023-07-29T05:54:14;1.60;;;1.50;;
4420;SDS011;11824;51.178;13.546;2023-07-29T05:56:41;1.30;;;1.20;;
4420;SDS011;11824;51.178;13.546;2023-07-29T05:59:09;1.57;;;1.47;;
4420;SDS011;11824;51.178;13.546;2023-07-29T06:01:36;1.40;;;1.30;;
4420;SDS011;11824;51.178;13.546;2023-07-29T06:04:04;10.33;;;1.80;;
4420;SDS011;11824;51.178;13.546;2023-07-29T06:06:31;2.03;;;1.20;;
4420;SDS011;11824;51.178;13.546;2023-07-29T06:08:59;1.30;;;1.20;;
4420;SDS011;11824;51.178;13.546;2023-07-29T06:11:27;0.80;;;0.80;;
4420;SDS011;11824;51.178;13.546;2023-07-29T06:13:54;1.67;;;1.10;;
4420;SDS011;11824;51.178;13.546;2023-07-29T06:16:22;4.03;;;1.30;;
4420;SDS011;11824;51.178;13.546;2023-07-29T06:18:50;1.53;;;0.97;;
4420;SDS011;11824;51.178;13.546;2023-07-29T06:21:18;1.20;;;1.10;;
4420;SDS011;11824;51.178;13.546;2023-07-29T06:23:46;1.63;;;1.20;;
4420;SDS011;11824;51.178;13.546;2023-07-29T06:26:13;2.83;;;1.50;;
4420;SDS011;11824;51.178;13.546;2023-07-29T06:28:40;1.63;;;1.43;;
4420;SDS011;11824;51.178;13.546;2023-07-29T06:31:08;1.50;;;1.40;;
4420;SDS011;11824;51.178;13.546;2023-07-29T06:33:40;1.50;;;1.40;;
4420;SDS011;11824;51.178;13.546;2023-07-29T06:36:10;1.87;;;1.23;;
4420;SDS011;11824;51.178;13.546;2023-07-29T06:38:37;1.60;;;1.50;;
4420;SDS011;11824;51.178;13.546;2023-07-29T06:41:04;1.60;;;1.50;;
4420;SDS011;11824;51.178;13.546;2023-07-29T06:43:32;1.10;;;1.10;;
4420;SDS011;11824;51.178;13.546;2023-07-29T06:45:59;2.03;;;1.20;;
4420;SDS011;11824;51.178;13.546;2023-07-29T06:48:27;1.73;;;1.63;;
4420;SDS011;11824;51.178;13.546;2023-07-29T06:50:55;2.00;;;1.73;;
4420;SDS011;11824;51.178;13.546;2023-07-29T06:53:26;1.97;;;1.40;;
4420;SDS011;11824;51.178;13.546;2023-07-29T06:55:54;1.40;;;1.30;;
4420;SDS011;11824;51.178;13.546;2023-07-29T06:58:21;5.57;;;2.33;;
4420;SDS011;11824;51.178;13.546;2023-07-29T07:00:48;13.73;;;1.70;;
4420;SDS011;11824;51.178;13.546;2023-07-29T07:03:16;10.30;;;1.47;;
4420;SDS011;11824;51.178;13.546;2023-07-29T07:05:43;1.80;;;1.70;;
4420;SDS011;11824;51.178;13.546;2023-07-29T07:08:11;2.33;;;1.77;;
4420;SDS011;11824;51.178;13.546;2023-07-29T07:10:39;2.03;;;1.70;;
4420;SDS011;11824;51.178;13.546;2023-07-29T07:13:06;1.50;;;1.40;;
4420;SDS011;11824;51.178;13.546;2023-07-29T07:15:34;4.93;;;1.30;;
4420;SDS011;11824;51.178;13.546;2023-07-29T07:18:01;1.50;;;1.40;;
4420;SDS011;11824;51.178;13.546;2023-07-29T07:20:29;1.80;;;1.70;;
4420;SDS011;11824;51.178;13.546;2023-07-29T07:22:56;1.50;;;1.40;;
4420;SDS011;11824;51.178;13.546;2023-07-29T07:25:24;25.00;;;1.67;;
4420;SDS011;11824;51.178;13.546;2023-07-29T07:27:51;1.90;;;1.80;;
4420;SDS011;11824;51.178;13.546;2023-07-29T07:30:19;2.23;;;1.50;;
4420;SDS011;11824;51.178;13.546;2023-07-29T07:32:46;1.63;;;1.53;;
4420;SDS011;11824;51.178;13.546;2023-07-29T07:35:15;1.60;;;1.50;;
4420;SDS011;11824;51.178;13.546;2023-07-29T07:37:43;1.50;;;1.40;;
4420;SDS011;11824;51.178;13.546;2023-07-29T07:40:10;2.37;;;1.90;;
4420;SDS011;11824;51.178;13.546;2023-07-29T07:42:38;1.40;;;1.30;;
4420;SDS011;11824;51.178;13.546;2023-07-29T07:45:06;1.77;;;1.67;;
4420;SDS011;11824;51.178;13.546;2023-07-29T07:47:33;1.57;;;1.47;;
4420;SDS011;11824;51.178;13.546;2023-07-29T07:50:01;1.60;;;1.40;;
4420;SDS011;11824;51.178;13.546;2023-07-29T07:52:28;1.40;;;1.30;;
4420;SDS011;11824;51.178;13.546;2023-07-29T07:54:56;1.70;;;1.40;;
4420;SDS011;11824;51.178;13.546;2023-07-29T07:57:23;1.50;;;1.40;;
4420;SDS011;11824;51.178;13.546;2023-07-29T07:59:51;1.70;;;1.60;;
4420;SDS011;11824;51.178;13.546;2023-07-29T08:02:19;1.60;;;1.50;;
4420;SDS011;11824;51.178;13.546;2023-07-29T08:04:46;1.30;;;1.17;;
4420;SDS011;11824;51.178;13.546;2023-07-29T08:07:14;5.13;;;4.63;;
4420;SDS011;11824;51.178;13.546;2023-07-29T08:09:41;7.57;;;1.50;;
4420;SDS011;11824;51.178;13.546;2023-07-29T08:12:08;10.70;;;1.40;;
4420;SDS011;11824;51.178;13.546;2023-07-29T08:14:36;5.53;;;1.50;;
4420;SDS011;11824;51.178;13.546;2023-07-29T08:17:04;2.73;;;1.50;;
4420;SDS011;11824;51.178;13.546;2023-07-29T08:19:31;4.73;;;1.30;;
4420;SDS011;11824;51.178;13.546;2023-07-29T08:22:01;1.40;;;1.30;;
4420;SDS011;11824;51.178;13.546;2023-07-29T08:24:29;2.13;;;1.30;;
4420;SDS011;11824;51.178;13.546;2023-07-29T08:26:56;1.00;;;1.00;;
4420;SDS011;11824;51.178;13.546;2023-07-29T08:29:24;1.20;;;1.10;;
4420;SDS011;11824;51.178;13.546;2023-07-29T08:31:51;1.23;;;1.10;;
4420;SDS011;11824;51.178;13.546;2023-07-29T08:34:21;1.10;;;1.00;;
4420;SDS011;11824;51.178;13.546;2023-07-29T08:36:49;1.20;;;1.10;;
4420;SDS011;11824;51.178;13.546;2023-07-29T08:39:16;1.73;;;1.00;;
4420;SDS011;11824;51.178;13.546;2023-07-29T08:41:45;1.47;;;1.00;;
4420;SDS011;11824;51.178;13.546;2023-07-29T08:44:18;2.03;;;0.93;;
4420;SDS011;11824;51.178;13.546;2023-07-29T08:46:48;5.03;;;1.20;;
4420;SDS011;11824;51.178;13.546;2023-07-29T08:49:19;1.10;;;1.00;;
4420;SDS011;11824;51.178;13.546;2023-07-29T08:51:57;3.83;;;1.20;;
4420;SDS011;11824;51.178;13.546;2023-07-29T08:54:25;1.57;;;1.47;;
4420;SDS011;11824;51.178;13.546;2023-07-29T08:56:53;3.20;;;1.50;;
4420;SDS011;11824;51.178;13.546;2023-07-29T08:59:20;1.17;;;1.10;;
4420;SDS011;11824;51.178;13.546;2023-07-29T09:01:48;2.50;;;1.00;;
4420;SDS011;11824;51.178;13.546;2023-07-29T09:04:16;1.20;;;1.10;;
4420;SDS011;11824;51.178;13.546;2023-07-29T09:06:44;1.60;;;1.40;;
4420;SDS011;11824;51.178;13.546;2023-07-29T09:09:14;1.00;;;1.00;;
4420;SDS011;11824;51.178;13.546;2023-07-29T09:11:41;1.57;;;1.30;;
4420;SDS011;11824;51.178;13.546;2023-07-29T09:14:09;1.93;;;1.33;;
4420;SDS011;11824;51.178;13.546;2023-07-29T09:16:37;1.60;;;1.20;;
4420;SDS011;11824;51.178;13.546;2023-07-29T09:19:05;1.00;;;1.00;;
4420;SDS011;11824;51.178;13.546;2023-07-29T09:21:33;1.97;;;1.43;;
4420;SDS011;11824;51.178;13.546;2023-07-29T09:24:05;1.27;;;1.17;;
4420;SDS011;11824;51.178;13.546;2023-07-29T09:26:33;3.57;;;1.17;;
4420;SDS011;11824;51.178;13.546;2023-07-29T09:29:01;1.63;;;1.30;;
4420;SDS011;11824;51.178;13.546;2023-07-29T09:31:29;1.00;;;1.00;;
4420;SDS011;11824;51.178;13.546;2023-07-29T09:33:57;1.00;;;0.90;;
4420;SDS011;11824;51.178;13.546;2023-07-29T09:36:25;1.67;;;1.53;;
4420;SDS011;11824;51.178;13.546;2023-07-29T09:38:54;3.40;;;1.40;;
4420;SDS011;11824;51.178;13.546;2023-07-29T09:41:23;1.30;;;1.20;;
4420;SDS011;11824;51.178;13.546;2023-07-29T09:43:55;2.70;;;1.00;;
4420;SDS011;11824;51.178;13.546;2023-07-29T09:46:24;1.37;;;1.27;;
4420;SDS011;11824;51.178;13.546;2023-07-29T09:48:59;2.23;;;1.50;;
4420;SDS011;11824;51.178;13.546;2023-07-29T09:51:27;1.40;;;1.30;;
4420;SDS011;11824;51.178;13.546;2023-07-29T09:53:55;1.50;;;1.40;;
4420;SDS011;11824;51.178;13.546;2023-07-29T09:56:25;1.20;;;1.13;;
4420;SDS011;11824;51.178;13.546;2023-07-29T09:58:53;1.33;;;1.03;;
4420;SDS011;11824;51.178;13.546;2023-07-29T10:01:23;4.17;;;1.63;;
4420;SDS011;11824;51.178;13.546;2023-07-29T10:03:50;1.63;;;1.47;;
4420;SDS011;11824;51.178;13.546;2023-07-29T10:06:18;1.53;;;1.43;;
4420;SDS011;11824;51.178;13.546;2023-07-29T10:08:47;2.23;;;1.73;;
4420;SDS011;11824;51.178;13.546;2023-07-29T10:11:15;3.80;;;1.50;;
4420;SDS011;11824;51.178;13.546;2023-07-29T10:13:46;10.13;;;2.40;;
4420;SDS011;11824;51.178;13.546;2023-07-29T10:16:33;8.57;;;2.63;;
4420;SDS011;11824;51.178;13.546;2023-07-29T10:19:02;5.93;;;2.20;;
4420;SDS011;11824;51.178;13.546;2023-07-29T10:21:33;2.10;;;1.90;;
4420;SDS011;11824;51.178;13.546;2023-07-29T10:24:02;1.63;;;1.53;;
4420;SDS011;11824;51.178;13.546;2023-07-29T10:26:37;1.93;;;1.30;;
4420;SDS011;11824;51.178;13.546;2023-07-29T10:29:10;1.47;;;1.37;;
4420;SDS011;11824;51.178;13.546;2023-07-29T10:31:40;1.43;;;1.27;;
4420;SDS011;11824;51.178;13.546;2023-07-29T10:34:10;1.27;;;1.17;;
4420;SDS011;11824;51.178;13.546;2023-07-29T10:36:38;1.40;;;1.17;;
4420;SDS011;11824;51.178;13.546;2023-07-29T10:39:07;1.50;;;0.90;;
4420;SDS011;11824;51.178;13.546;2023-07-29T10:47:16;1.20;;;1.10;;
4420;SDS011;11824;51.178;13.546;2023-07-29T10:49:45;2.80;;;1.03;;
4420;SDS011;11824;51.178;13.546;2023-07-29T10:52:13;1.20;;;1.10;;
4420;SDS011;11824;51.178;13.546;2023-07-29T10:54:42;1.03;;;0.93;;
4420;SDS011;11824;51.178;13.546;2023-07-29T10:57:13;1.23;;;1.00;;
4420;SDS011;11824;51.178;13.546;2023-07-29T10:59:42;2.33;;;1.17;;
4420;SDS011;11824;51.178;13.546;2023-07-29T11:02:22;4.23;;;1.20;;
4420;SDS011;11824;51.178;13.546;2023-07-29T11:04:56;1.27;;;1.03;;
4420;SDS011;11824;51.178;13.546;2023-07-29T11:07:25;2.50;;;1.50;;
4420;SDS011;11824;51.178;13.546;2023-07-29T11:09:57;0.90;;;0.90;;
4420;SDS011;11824;51.178;13.546;2023-07-29T11:12:33;5.73;;;1.33;;
4420;SDS011;11824;51.178;13.546;2023-07-29T11:15:12;1.30;;;1.20;;
4420;SDS011;11824;51.178;13.546;2023-07-29T11:17:42;3.50;;;1.27;;
4420;SDS011;11824;51.178;13.546;2023-07-29T11:20:10;2.03;;;1.17;;
4420;SDS011;11824;51.178;13.546;2023-07-29T11:22:39;0.80;;;0.80;;
4420;SDS011;11824;51.178;13.546;2023-07-29T11:25:07;0.90;;;0.90;;
4420;SDS011;11824;51.178;13.546;2023-07-29T11:27:35;1.00;;;0.80;;
4420;SDS011;11824;51.178;13.546;2023-07-29T11:30:04;1.03;;;0.90;;
4420;SDS011;11824;51.178;13.546;2023-07-29T11:32:34;1.43;;;0.80;;
4420;SDS011;11824;51.178;13.546;2023-07-29T11:35:02;1.57;;;0.90;;
4420;SDS011;11824;51.178;13.546;2023-07-29T11:37:30;2.10;;;0.93;;
4420;SDS011;11824;51.178;13.546;2023-07-29T11:40:00;1.77;;;1.10;;
4420;SDS011;11824;51.178;13.546;2023-07-29T11:42:27;1.47;;;1.00;;
4420;SDS011;11824;51.178;13.546;2023-07-29T11:44:58;3.87;;;1.20;;
4420;SDS011;11824;51.178;13.546;2023-07-29T11:47:26;1.10;;;1.00;;
4420;SDS011;11824;51.178;13.546;2023-07-29T11:49:57;1.20;;;0.93;;
4420;SDS011;11824;51.178;13.546;2023-07-29T11:52:27;1.43;;;1.23;;
4420;SDS011;11824;51.178;13.546;2023-07-29T11:55:03;4.70;;;1.20;;
4420;SDS011;11824;51.178;13.546;2023-07-29T11:57:33;1.20;;;1.07;;
4420;SDS011;11824;51.178;13.546;2023-07-29T12:00:02;1.43;;;0.77;;
4420;SDS011;11824;51.178;13.546;2023-07-29T12:02:32;1.20;;;1.10;;
4420;SDS011;11824;51.178;13.546;2023-07-29T12:05:02;1.20;;;1.10;;
4420;SDS011;11824;51.178;13.546;2023-07-29T12:07:30;4.40;;;1.20;;
4420;SDS011;11824;51.178;13.546;2023-07-29T12:09:59;1.30;;;1.20;;
4420;SDS011;11824;51.178;13.546;2023-07-29T12:12:28;1.37;;;1.27;;
4420;SDS011;11824;51.178;13.546;2023-07-29T12:14:56;1.43;;;1.10;;
4420;SDS011;11824;51.178;13.546;2023-07-29T12:17:24;1.77;;;1.20;;
4420;SDS011;11824;51.178;13.546;2023-07-29T12:19:53;1.20;;;1.10;;
4420;SDS011;11824;51.178;13.546;2023-07-29T12:22:23;3.03;;;1.20;;
4420;SDS011;11824;51.178;13.546;2023-07-29T12:24:51;1.57;;;0.90;;
4420;SDS011;11824;51.178;13.546;2023-07-29T12:27:19;5.90;;;1.23;;
4420;SDS011;11824;51.178;13.546;2023-07-29T12:29:49;3.93;;;1.20;;
4420;SDS011;11824;51.178;13.546;2023-07-29T12:32:18;1.47;;;1.37;;
4420;SDS011;11824;51.178;13.546;2023-07-29T12:34:46;2.40;;;1.87;;
4420;SDS011;11824;51.178;13.546;2023-07-29T12:37:13;3.00;;;2.60;;
4420;SDS011;11824;51.178;13.546;2023-07-29T12:39:41;3.70;;;2.43;;
4420;SDS011;11824;51.178;13.546;2023-07-29T12:42:09;3.13;;;2.90;;
4420;SDS011;11824;51.178;13.546;2023-07-29T12:44:37;3.53;;;2.10;;
4420;SDS011;11824;51.178;13.546;2023-07-29T12:47:05;4.47;;;1.83;;
4420;SDS011;11824;51.178;13.546;2023-07-29T12:49:37;2.70;;;1.70;;
4420;SDS011;11824;51.178;13.546;2023-07-29T12:52:04;3.00;;;1.67;;
4420;SDS011;11824;51.178;13.546;2023-07-29T12:54:32;1.73;;;1.33;;
4420;SDS011;11824;51.178;13.546;2023-07-29T12:57:00;1.83;;;1.43;;
4420;SDS011;11824;51.178;13.546;2023-07-29T12:59:27;1.30;;;1.20;;
4420;SDS011;11824;51.178;13.546;2023-07-29T13:01:55;2.83;;;1.50;;
4420;SDS011;11824;51.178;13.546;2023-07-29T13:04:22;2.40;;;1.20;;
4420;SDS011;11824;51.178;13.546;2023-07-29T13:06:50;3.40;;;1.43;;
4420;SDS011;11824;51.178;13.546;2023-07-29T13:09:17;1.47;;;1.20;;
4420;SDS011;11824;51.178;13.546;2023-07-29T13:11:45;1.63;;;1.40;;
4420;SDS011;11824;51.178;13.546;2023-07-29T13:14:13;3.10;;;1.37;;
4420;SDS011;11824;51.178;13.546;2023-07-29T13:16:40;1.57;;;1.30;;
4420;SDS011;11824;51.178;13.546;2023-07-29T13:19:08;1.77;;;1.10;;
4420;SDS011;11824;51.178;13.546;2023-07-29T13:21:35;1.37;;;1.10;;
4420;SDS011;11824;51.178;13.546;2023-07-29T13:24:03;2.10;;;1.63;;
4420;SDS011;11824;51.178;13.546;2023-07-29T13:26:31;1.20;;;1.10;;
4420;SDS011;11824;51.178;13.546;2023-07-29T13:28:58;2.30;;;1.30;;
4420;SDS011;11824;51.178;13.546;2023-07-29T13:31:26;1.17;;;1.07;;
4420;SDS011;11824;51.178;13.546;2023-07-29T13:33:54;1.10;;;1.00;;
4420;SDS011;11824;51.178;13.546;2023-07-29T13:36:21;1.40;;;1.30;;
4420;SDS011;11824;51.178;13.546;2023-07-29T13:38:48;1.20;;;1.10;;
4420;SDS011;11824;51.178;13.546;2023-07-29T13:41:16;1.30;;;1.20;;
4420;SDS011;11824;51.178;13.546;2023-07-29T13:43:43;1.00;;;0.90;;
4420;SDS011;11824;51.178;13.546;2023-07-29T13:46:10;2.60;;;1.40;;
4420;SDS011;11824;51.178;13.546;2023-07-29T13:48:38;1.77;;;1.10;;
4420;SDS011;11824;51.178;13.546;2023-07-29T13:51:06;3.07;;;1.40;;
4420;SDS011;11824;51.178;13.546;2023-07-29T13:53:34;1.00;;;0.90;;
4420;SDS011;11824;51.178;13.546;2023-07-29T13:56:01;1.60;;;1.10;;
4420;SDS011;11824;51.178;13.546;2023-07-29T13:58:30;1.23;;;1.00;;
4420;SDS011;11824;51.178;13.546;2023-07-29T14:00:57;2.37;;;1.57;;
4420;SDS011;11824;51.178;13.546;2023-07-29T14:03:25;5.27;;;1.20;;
4420;SDS011;11824;51.178;13.546;2023-07-29T14:05:53;2.77;;;1.40;;
4420;SDS011;11824;51.178;13.546;2023-07-29T14:08:21;1.60;;;1.40;;
4420;SDS011;11824;51.178;13.546;2023-07-29T14:10:49;1.33;;;1.23;;
4420;SDS011;11824;51.178;13.546;2023-07-29T14:13:16;2.80;;;1.83;;
4420;SDS011;11824;51.178;13.546;2023-07-29T14:15:44;5.83;;;1.37;;
4420;SDS011;11824;51.178;13.546;2023-07-29T14:18:12;1.87;;;1.60;;
4420;SDS011;11824;51.178;13.546;2023-07-29T14:20:39;1.40;;;1.30;;
4420;SDS011;11824;51.178;13.546;2023-07-29T14:23:07;1.27;;;1.17;;
4420;SDS011;11824;51.178;13.546;2023-07-29T14:25:35;1.27;;;1.17;;
4420;SDS011;11824;51.178;13.546;2023-07-29T14:28:02;1.67;;;1.30;;
4420;SDS011;11824;51.178;13.546;2023-07-29T14:30:30;1.33;;;1.23;;
4420;SDS011;11824;51.178;13.546;2023-07-29T14:32:57;3.20;;;1.67;;
4420;SDS011;11824;51.178;13.546;2023-07-29T14:35:25;1.40;;;1.13;;
4420;SDS011;11824;51.178;13.546;2023-07-29T14:37:52;2.03;;;1.33;;
4420;SDS011;11824;51.178;13.546;2023-07-29T14:40:20;1.27;;;1.17;;
4420;SDS011;11824;51.178;13.546;2023-07-29T14:42:48;1.70;;;1.40;;
4420;SDS011;11824;51.178;13.546;2023-07-29T14:45:15;4.00;;;1.63;;
4420;SDS011;11824;51.178;13.546;2023-07-29T14:47:43;8.93;;;1.40;;
4420;SDS011;11824;51.178;13.546;2023-07-29T14:50:10;1.57;;;1.47;;
4420;SDS011;11824;51.178;13.546;2023-07-29T14:52:38;2.27;;;1.60;;
4420;SDS011;11824;51.178;13.546;2023-07-29T14:55:05;1.50;;;1.40;;
4420;SDS011;11824;51.178;13.546;2023-07-29T14:57:34;1.33;;;1.23;;
4420;SDS011;11824;51.178;13.546;2023-07-29T15:00:01;3.40;;;1.50;;